Prescott, Canada
Current Conditions -  °F | °C
As of 5:53 PM on Sunday 21 Dec 2014 (Local Time) from KMSS Reporting Station
Overcast Overcast  
Wind Chill: 13°   Ceiling: 700
Heat Index: 20°   Visibility: 7mi
Dew Point: 16°   Wind: 5mph
Humidity: 85%   Direction: 90°E
Pressure: 30.37"   Gusts: NA
Location:  44.72°N, 75.52°W
Report Text: KMSS 212253Z AUTO 09004KT 7SM OVC007 M07/M09 A3037 RMK AO2 SLP293 T10671089
Loading
Personal Weather Stations






























Interactive Weather Map New forecast layout! Learn more

10-Day Weather Forecast

Advertisements
Track Severe Weather on mobile